Tiempo atmosférico en la estación meteorológica de Astorga, León (919 m.)



Fecha
DESCASC
Temp. máxima en grados centígrados (hora)
DESCASC
Temp. mínima en grados centígrados (hora)
DESCASC
Temp. media en grados centígrados
DESCASC
Racha de viento máxima en m/sg (hora)
DESCASC
Velocidad máxima media en intervalos de 10 minutos(hora)
DESCASC
Precipitaciones diarias en mm
DESCASC
Precipitaciones de 00:00 a 06:00 en mm
DESCASC
Precipitaciones de 06:00 a 12:00 en mm
DESCASC
Precipitaciones de 12:00 a 18:00 en mm
DESCASC
Precipitaciones de 18:00 a 24:00 en mm
DESCASC
18-04-2019 14.6 (17:20) 4.9 (07:30) 9.8 8.89 (21:20) 5.83 (21:20) 2.6 0.4 0 0.2 2
17-04-2019 18.3 (16:20) 5.4 (06:10) 11.8 16.67 (19:50) 11.67 (19:50) 0.8 0 0 0 0.8
16-04-2019 17.9 (17:30) 0.9 (00:00) 9.4 9.72 (17:20) 6.39 (19:30) 0 0 0 0 0
15-04-2019 17.5 (14:10) 5.6 (00:00) 11.5 16.39 (13:00) 10 (13:30) 2.6 0 2.4 0.2 0
14-04-2019 22.2 (16:10) 9.7 (00:00) 16 9.72 (20:30) 7.22 (20:30) 0 0 0 0 0
13-04-2019 20.5 (15:50) 3.1 (00:00) 11.8 8.06 (22:40) 4.17 (23:30) 0 0 0 0 0
12-04-2019 19.2 (18:20) -1.5 (-00:0) 8.9 5.28 (18:40) 3.33 (20:20) 0 0 0 0 0
11-04-2019 14.5 (17:40) -0.7 (-00:0) 6.9 6.67 (13:50) 3.89 (21:00) 0 0 0 0 0
10-04-2019 15.1 (17:40) 2.8 (00:00) 9 11.94 (16:40) 8.33 (16:30) 0.4 0 0.4 0 0
09-04-2019 12.5 (17:30) 2.7 (00:00) 7.6 12.5 (16:40) 7.22 (16:40) 2 0.2 1.6 0 0.2
08-04-2019 13.9 (14:50) 2.6 (00:00) 8.2 11.11 (18:30) 6.39 (17:20) 2.4 2.4 0 0 0
07-04-2019 11.4 (15:10) -0.7 (-00:0) 5.3 11.67 (16:50) 8.33 (16:50) 3.8 0 0 1 2.8
06-04-2019 8.8 (16:20) 0 (00:00) 4.4 12.22 (16:10) 7.22 (16:50) 0.4 0 0 0.4 0
05-04-2019 11.2 (15:50) 0.6 (00:00) 5.9 9.72 (00:30) 7.5 (00:30) 0.4 0.2 0.2 0 0
04-04-2019 10 (15:50) -1.2 (-00:0) 4.4 11.11 (23:10) 8.89 (23:10) 0.6 0 0 0 0.6
03-04-2019 9.8 (15:30) 0.1 (00:00) 5 15 (15:20) 8.61 (15:50) 0 0 0 0 0
02-04-2019 18.2 (14:30) 1.3 (00:00) 9.8 11.39 (17:50) 6.11 (16:30) 0 0 0 0 0
01-04-2019 18.9 (18:00) 1.5 (00:00) 10.2 9.17 (18:10) 6.11 (18:20) 0.2 0 0 0.2 0
31-03-2019 20.1 (18:10) 4.4 (00:00) 12.3 8.61 (20:00) 6.67 (20:10) 0 0 0 0 0
30-03-2019 19.4 (15:20) 4.7 (00:00) 12 8.33 (18:30) 4.72 (16:10) 0.6 0 0 0 0.6
29-03-2019 20.8 (16:30) 1.1 (00:00) 10.9 9.72 (19:40) 6.67 (19:40) 0 0 0 0 0
28-03-2019 20.4 (16:00) -1.2 (-00:0) 9.6 9.17 (13:30) 5.28 (15:00) 0 0 0 0 0
27-03-2019 20.8 (15:30) -2.1 (-00:0) 9.3 9.72 (11:10) 5 (17:40) 0 0 0 0 0
26-03-2019 19.2 (16:10) -0.1 (00:00) 9.6 12.78 (19:30) 7.5 (19:40) 0 0 0 0 0
25-03-2019 18.7 (17:20) 2.6 (00:00) 10.7 9.72 (18:40) 6.94 (18:40) 0 0 0 0 0
24-03-2019 21.4 (15:50) 5.3 (00:00) 13.3 7.22 (13:50) 4.44 (20:30) 0 0 0 0 0
23-03-2019 20.2 (16:00) 0.7 (00:00) 10.5 14.72 (14:50) 3.89 (15:30) 0 0 0 0 0
22-03-2019 18.9 (17:20) -1.9 (-00:0) 8.5 6.39 (17:50) 3.61 (17:50) 0 0 0 0 0
21-03-2019 15.8 (17:20) -0.5 (-00:0) 7.7 6.94 (15:00) 3.61 (14:50) 0 0 0 0 0

Gráficas

Temp. máximas Temp. mínimas Temp. medias Precipitaciones Rachas de viento máximas Velocidades máximas media en intervalos de 10 minutos

Datos horarios

Fecha y hora oficial Temperatura (ºC) Velocidad del viento (km/h) Dirección del viento Racha (km/h) Dirección de racha Precipitación (mm) Presión (hPa) Tendencia (hPa) Humedad (%)
2019-04-19 23:00:00 11.6 7 Este 15 Este 0 -- -- 61
2019-04-19 22:00:00 11.2 4 Nordeste 10 Este 0 -- -- 65
2019-04-19 21:00:00 13.1 9 Este 31 Este 0 -- -- 59
2019-04-19 20:00:00 14.5 9 Este 18 Este 0 -- -- 66
2019-04-19 19:00:00 13.7 6 Sudeste 24 Sudeste 0 -- -- 67
2019-04-19 18:00:00 13.4 14 Sudeste 37 Este 0 -- -- 67
2019-04-19 17:00:00 13.6 14 Este 33 Sudeste 0 -- -- 69
2019-04-19 16:00:00 13.3 20 Este 37 Este 0 -- -- 68
2019-04-19 15:00:00 14.1 17 Este 32 Este 0 -- -- 65
2019-04-19 14:00:00 12.7 15 Este 32 Este 0 -- -- 71
2019-04-19 13:00:00 11.6 13 Este 36 Este 0.2 -- -- 76
2019-04-19 12:00:00 10.9 16 Este 35 Este 0 -- -- 83
2019-04-19 11:00:00 8.8 15 Este 33 Este 0 -- -- 93
2019-04-19 10:00:00 8.3 17 Nordeste 31 Nordeste 0 -- -- 92
2019-04-19 09:00:00 7.8 13 Nordeste 27 Nordeste 0 -- -- 94
2019-04-19 08:00:00 7.5 13 Nordeste 31 Este 0 -- -- 96
2019-04-19 07:00:00 7.3 14 Este 32 Nordeste 0.4 -- -- 96
2019-04-19 06:00:00 7.4 20 Nordeste 43 Nordeste 0.8 -- -- 96
2019-04-19 05:00:00 7.1 18 Norte 26 Norte 0.8 -- -- 97
2019-04-19 04:00:00 7 12 Norte 17 Norte 0.6 -- -- 97
2019-04-19 03:00:00 7 13 Nordeste 20 Nordeste 1.4 -- -- 96
2019-04-19 02:00:00 7.1 7 Nordeste 10 Nordeste 0.4 -- -- 95
2019-04-19 01:00:00 7.2 6 Norte 19 Nordeste 0 -- -- 94
2019-04-19 00:00:00 7.1 15 Norte 21 Norte 0 -- -- 92
2019-04-18 23:00:00 7 12 Norte 23 Norte 0 -- -- 94
2019-04-18 22:00:00 7.4 18 Norte 32 Nordeste 0.4 -- -- 94
2019-04-18 21:00:00 8.3 7 Norte 11 Este 1.2 -- -- 95
2019-04-18 20:00:00 8.7 7 Este 22 Este 0.4 -- -- 92
2019-04-18 19:00:00 9.8 11 Este 23 Este 0 -- -- 87
2019-04-18 18:00:00 12 16 Este 25 Este 0 -- -- 64
2019-04-18 17:00:00 14 4 Sudeste 10 Este 0 -- -- 56
2019-04-18 16:00:00 13.6 5 Sudeste 13 Este 0 -- -- 58
2019-04-18 15:00:00 13.4 8 Este 15 Este 0.2 -- -- 62
2019-04-18 14:00:00 11.4 8 Este 16 Este 0 -- -- 68
2019-04-18 13:00:00 11.1 6 Este 13 Este 0 -- -- 73
2019-04-18 12:00:00 9.9 5 Sur 10 Sur 0 -- -- 77
2019-04-18 11:00:00 9.2 5 Sudeste 11 Sudeste 0 -- -- 85
2019-04-18 10:00:00 7.3 4 Sudoeste 9 Sur 0 -- -- 95
2019-04-18 09:00:00 6.3 3 Este 14 Sudeste 0 -- -- 97
2019-04-18 08:00:00 5.2 7 Este 11 Este 0 -- -- 99
2019-04-18 07:00:00 5.3 5 Nordeste 8 Nordeste 0 -- -- 98
2019-04-18 06:00:00 6 4 Este 7 Nordeste 0 -- -- 97
2019-04-18 05:00:00 7.1 3 Este 11 Sudoeste 0.2 -- -- 97
2019-04-18 04:00:00 7.6 10 Sur 22 Sur 0.2 -- -- 97
2019-04-18 03:00:00 7.8 14 Sur 24 Sur 0 -- -- 96
2019-04-18 02:00:00 8 13 Sur 22 Sur 0 -- -- 96
2019-04-18 01:00:00 8.1 17 Sur 23 Sur 0 -- -- 94
2019-04-18 00:00:00 8.4 11 Sur 18 Sur 0.2 -- -- 95
2019-04-17 23:00:00 8.5 15 Sur 36 Sur 0.6 -- -- 91
2019-04-17 22:00:00 10 15 Sur 34 Sudoeste 0 -- -- 81
2019-04-17 21:00:00 11.7 15 Sudoeste 50 Sur 0 -- -- 75
2019-04-17 20:00:00 15.7 39 Sur 60 Sur 0 -- -- 44
2019-04-17 19:00:00 16.6 29 Sur 48 Sur 0 -- -- 47
2019-04-17 18:00:00 17.1 29 Sur 47 Sudeste 0 -- -- 46
2019-04-17 17:00:00 16.9 33 Sur 49 Sur 0 -- -- 46
2019-04-17 16:00:00 17.6 38 Sur 60 Sudoeste 0 -- -- 44
2019-04-17 15:00:00 18.2 22 Sur 44 Sur 0 -- -- 46
2019-04-17 14:00:00 16.7 24 Sur 39 Sudoeste 0 -- -- 49
2019-04-17 13:00:00 15.1 18 Sur 31 Sudeste 0 -- -- 55
2019-04-17 12:00:00 15.5 14 Sudeste 24 Sudeste 0 -- -- 54
2019-04-17 11:00:00 12.4 10 Sudeste 16 Este 0 -- -- 65
2019-04-17 10:00:00 10.1 4 Nordeste 9 Norte 0 -- -- 70
2019-04-17 09:00:00 6.9 8 Norte 12 Norte 0 -- -- 81
2019-04-17 08:00:00 5.8 2 Noroeste 7 Sudoeste 0 -- -- 81
2019-04-17 07:00:00 6.5 5 Sudeste 13 Nordeste 0 -- -- 79
2019-04-17 06:00:00 5.5 6 Nordeste 11 Nordeste 0 -- -- 77
2019-04-17 05:00:00 7.3 2 Sur 11 Este 0 -- -- 71
2019-04-17 04:00:00 7.1 6 Norte 14 Norte 0 -- -- 69
2019-04-17 03:00:00 7.6 10 Norte 14 Nordeste 0 -- -- 67
2019-04-17 02:00:00 9.6 9 Este 14 Este 0 -- -- 60
2019-04-17 01:00:00 9.8 6 Nordeste 9 Nordeste 0 -- -- 59
2019-04-17 00:00:00 11.1 5 Sudeste 10 Sudeste 0 -- -- 53
2019-04-16 23:00:00 12.1 6 Sudeste 14 Este 0 -- -- 48
2019-04-16 22:00:00 13 6 Sudeste 13 Sudeste 0 -- -- 44
2019-04-16 21:00:00 14.1 11 Sudeste 23 Sudeste 0 -- -- 43
2019-04-16 20:00:00 16.6 20 Sur 34 Sur 0 -- -- 36
2019-04-16 19:00:00 16.6 21 Sur 35 Sur 0 -- -- 33
2019-04-16 18:00:00 17.9 16 Sur 35 Sur 0 -- -- 34
2019-04-16 17:00:00 17 15 Sur 35 Sur 0 -- -- 34
2019-04-16 16:00:00 16.6 16 Sudeste 32 Sudeste 0 -- -- 40
2019-04-16 15:00:00 15 15 Sur 26 Sudeste 0 -- -- 46
2019-04-16 14:00:00 13.6 12 Sudeste 23 Sur 0 -- -- 49
2019-04-16 13:00:00 11.8 9 Sur 19 Sur 0 -- -- 56
2019-04-16 12:00:00 10.9 9 Sur 17 Sudeste 0 -- -- 69
2019-04-16 11:00:00 7.6 8 Sur 14 Sur 0 -- -- 85
2019-04-16 10:00:00 5.6 5 Norte 14 Norte 0 -- -- 93
2019-04-16 09:00:00 3 10 Norte 15 Norte 0 -- -- 97
2019-04-16 08:00:00 1.4 6 Norte 9 Noroeste 0 -- -- 98
2019-04-16 07:00:00 1.5 6 Este 10 Sudeste 0 -- -- 96
2019-04-16 06:00:00 1.6 5 Este 19 Noroeste 0 -- -- 95
2019-04-16 05:00:00 3.3 14 Noroeste 23 Noroeste 0 -- -- 95
2019-04-16 04:00:00 2.6 14 Norte 18 Norte 0 -- -- 96
2019-04-16 03:00:00 4.1 6 Norte 9 Norte 0 -- -- 91
2019-04-16 02:00:00 4.1 4 Este 13 Oeste 0 -- -- 93
2019-04-16 01:00:00 5.4 5 Noroeste 9 Noroeste 0 -- -- 86
2019-04-16 00:00:00 5.6 0 Calma 12 Noroeste 0 -- -- 85
2019-04-15 23:00:00 6.7 9 Noroeste 25 Noroeste 0 -- -- 82
2019-04-15 22:00:00 7.4 8 Noroeste 25 Noroeste 0 -- -- 79
2019-04-15 21:00:00 9 10 Oeste 29 Oeste 0 -- -- 75
2019-04-15 20:00:00 11.5 17 Oeste 30 Oeste 0 -- -- 67
2019-04-15 19:00:00 13.7 18 Oeste 35 Noroeste 0 -- -- 62
2019-04-15 18:00:00 15.8 13 Noroeste 41 Oeste 0 -- -- 48
2019-04-15 17:00:00 13.1 16 Noroeste 36 Oeste 0 -- -- 60
2019-04-15 16:00:00 10.4 23 Noroeste 40 Sudoeste 0 -- -- 77
2019-04-15 15:00:00 15.9 27 Sudoeste 53 Sudoeste 0 -- -- 52
2019-04-15 14:00:00 17.2 31 Sudoeste 55 Sudoeste 0 -- -- 52
2019-04-15 13:00:00 16.2 33 Sudoeste 59 Sudoeste 0.2 -- -- 68
2019-04-15 12:00:00 12.2 22 Sudoeste 45 Sur 2.4 -- -- 93
2019-04-15 11:00:00 13.9 19 Sur 31 Sur 0 -- -- 84
2019-04-15 10:00:00 11.9 11 Sudeste 22 Sudeste 0 -- -- 91
2019-04-15 09:00:00 11.1 13 Sur 17 Sur 0 -- -- 92
2019-04-15 08:00:00 10.4 6 Sudeste 12 Sudeste 0 -- -- 93
2019-04-15 07:00:00 10.2 4 Este 13 Nordeste 0 -- -- 93
2019-04-15 06:00:00 10.5 6 Nordeste 13 Sudeste 0 -- -- 90
2019-04-15 05:00:00 10.9 4 Este 10 Sudeste 0 -- -- 89
2019-04-15 04:00:00 11.1 3 Nordeste 10 Sur 0 -- -- 85
2019-04-15 03:00:00 11.1 6 Este 13 Sudeste 0 -- -- 84
2019-04-15 02:00:00 10.8 4 Nordeste 8 Nordeste 0 -- -- 84
2019-04-15 01:00:00 11.4 3 Norte 10 Noroeste 0 -- -- 84
2019-04-15 00:00:00 11 4 Este 12 Nordeste 0 -- -- 86
2019-04-14 23:00:00 12.8 8 Sur 20 Sur 0 -- -- 78
2019-04-14 22:00:00 14.2 14 Sudeste 24 Sur 0 -- -- 71
2019-04-14 21:00:00 16 18 Sur 35 Sur 0 -- -- 64
2019-04-14 20:00:00 17.8 24 Sur 34 Sudoeste 0 -- -- 57
2019-04-14 19:00:00 20.4 22 Sur 33 Sur 0 -- -- 51
2019-04-14 18:00:00 20.5 9 Sudeste 22 Sudeste 0 -- -- 50
2019-04-14 17:00:00 21.3 10 Sudeste 21 Sudeste 0 -- -- 47
2019-04-14 16:00:00 21 5 Oeste 14 Noroeste 0 -- -- 48
2019-04-14 15:00:00 21.2 7 Norte 17 Noroeste 0 -- -- 50
2019-04-14 14:00:00 18.9 6 Norte 20 Oeste 0 -- -- 54
2019-04-14 13:00:00 18.2 8 Noroeste 23 Noroeste 0 -- -- 55
2019-04-14 12:00:00 17.3 9 Oeste 19 Noroeste 0 -- -- 57
2019-04-14 11:00:00 17.5 9 Noroeste 21 Noroeste 0 -- -- 62
2019-04-14 10:00:00 15.3 10 Noroeste 21 Oeste 0 -- -- 71
2019-04-14 09:00:00 12.5 7 Noroeste 13 Noroeste 0 -- -- 80
2019-04-14 08:00:00 10.5 7 Oeste 13 Oeste 0 -- -- 84
2019-04-14 07:00:00 10.2 7 Noroeste 13 Noroeste 0 -- -- 84
2019-04-14 06:00:00 9.7 5 Norte 8 Nordeste 0 -- -- 88
2019-04-14 05:00:00 10.6 5 Noroeste 22 Noroeste 0 -- -- 84
2019-04-14 04:00:00 10.3 6 Noroeste 13 Noroeste 0 -- -- 85
2019-04-14 03:00:00 9.7 6 Norte 17 Noroeste 0 -- -- 87
2019-04-14 02:00:00 11.4 11 Noroeste 29 Noroeste 0 -- -- 81
2019-04-14 01:00:00 12.4 15 Noroeste 25 Noroeste 0 -- -- 71
2019-04-14 00:00:00 13.1 11 Noroeste 26 Noroeste 0 -- -- 64
2019-04-13 23:00:00 14.2 14 Noroeste 29 Oeste 0 -- -- 56
2019-04-13 22:00:00 14.8 13 Oeste 26 Oeste 0 -- -- 51
2019-04-13 21:00:00 15.2 8 Noroeste 18 Noroeste 0 -- -- 50
2019-04-13 20:00:00 16.8 13 Norte 23 Norte 0 -- -- 43
2019-04-13 19:00:00 18.2 10 Noroeste 17 Noroeste 0 -- -- 40
2019-04-13 18:00:00 19.1 10 Norte 17 Norte 0 -- -- 37
2019-04-13 17:00:00 18.7 4 Sudeste 17 Sur 0 -- -- 37
2019-04-13 16:00:00 19.2 8 Sudeste 21 Sur 0 -- -- 36
2019-04-13 15:00:00 19 10 Sudeste 25 Sudeste 0 -- -- 38
2019-04-13 14:00:00 16.7 9 Sur 22 Sudeste 0 -- -- 41
2019-04-13 13:00:00 15.9 10 Sur 23 Sudeste 0 -- -- 43
2019-04-13 12:00:00 14.7 8 Sudeste 15 Sur 0 -- -- 45
2019-04-13 11:00:00 13.5 7 Sur 11 Sudeste 0 -- -- 47
2019-04-13 10:00:00 12.2 4 Sur 8 Sur 0 -- -- 49
2019-04-13 09:00:00 8 3 Norte 8 Nordeste 0 -- -- 66
2019-04-13 08:00:00 3.7 3 Norte 5 Nordeste 0 -- -- 76
2019-04-13 07:00:00 3.9 4 Noroeste 8 Norte 0 -- -- 73
2019-04-13 06:00:00 4.8 4 Noroeste 9 Norte 0 -- -- 69
2019-04-13 05:00:00 4.8 4 Norte 9 Norte 0 -- -- 70
2019-04-13 04:00:00 5.6 8 Norte 13 Norte 0 -- -- 63
2019-04-13 03:00:00 5.3 11 Norte 13 Norte 0 -- -- 66
2019-04-13 02:00:00 5.4 9 Norte 11 Norte 0 -- -- 64
2019-04-13 01:00:00 6.2 10 Norte 12 Norte 0 -- -- 64
2019-04-13 00:00:00 8.4 2 Noroeste 10 Sudeste 0 -- -- 57
2019-04-12 23:00:00 9.7 2 Este 12 Este 0 -- -- 54
2019-04-12 22:00:00 11.7 6 Sudoeste 12 Sur 0 -- -- 48
2019-04-12 21:00:00 13.3 8 Sur 16 Sur 0 -- -- 45
2019-04-12 20:00:00 15.4 11 Sur 18 Sur 0 -- -- 40
2019-04-12 19:00:00 17.4 9 Sur 19 Sur 0 -- -- 37
2019-04-12 18:00:00 18.5 9 Sur 17 Sur 0 -- -- 37
2019-04-12 17:00:00 17.9 4 Sur 13 Este 0 -- -- 36
2019-04-12 16:00:00 17.1 5 Sur 17 Sudeste 0 -- -- 39
2019-04-12 15:00:00 15.3 6 Norte 14 Sudoeste 0 -- -- 43
2019-04-12 14:00:00 12.4 6 Sur 12 Sudeste 0 -- -- 54
2019-04-12 13:00:00 10.8 7 Nordeste 15 Nordeste 0 -- -- 61
2019-04-12 12:00:00 7.8 3 Sudeste 12 Sudeste 0 -- -- 71
2019-04-12 11:00:00 6.1 3 Sudeste 10 Sur 0 -- -- 78
2019-04-12 10:00:00 3.7 2 Norte 6 Noroeste 0 -- -- 86
2019-04-12 09:00:00 1.7 5 Norte 8 Norte 0 -- -- 92
2019-04-12 08:00:00 0.8 7 Norte 8 Noroeste 0 -- -- 94
2019-04-12 07:00:00 -0.8 4 Norte 9 Norte 0 -- -- 95
2019-04-12 06:00:00 -1.4 4 Norte 6 Nordeste 0 -- -- 93
2019-04-12 05:00:00 0.7 4 Oeste 12 Oeste 0 -- -- 94
2019-04-12 04:00:00 0.5 6 Noroeste 9 Sudoeste 0 -- -- 92
2019-04-12 03:00:00 2 8 Sudoeste 12 Sur 0 -- -- 87
2019-04-12 02:00:00 1.8 4 Sur 11 Oeste 0 -- -- 81
2019-04-12 01:00:00 4.2 10 Oeste 14 Oeste 0 -- -- 79
2019-04-12 00:00:00 4 2 Oeste 6 Sur 0 -- -- 81
2019-04-11 23:00:00 4.7 3 Norte 10 Norte 0 -- -- 79
2019-04-11 22:00:00 5.7 9 Nordeste 19 Nordeste 0 -- -- 74
2019-04-11 21:00:00 8.8 14 Nordeste 19 Nordeste 0 -- -- 61
2019-04-11 20:00:00 10.8 11 Nordeste 17 Nordeste 0 -- -- 51
2019-04-11 19:00:00 13.5 4 Nordeste 19 Norte 0 -- -- 42
2019-04-11 18:00:00 12.8 12 Nordeste 22 Norte 0 -- -- 44
2019-04-11 17:00:00 12.8 12 Norte 18 Norte 0 -- -- 43
2019-04-11 16:00:00 13 8 Nordeste 19 Nordeste 0 -- -- 43
2019-04-11 15:00:00 12.8 12 Nordeste 20 Nordeste 0 -- -- 44
2019-04-11 14:00:00 12.9 10 Nordeste 24 Nordeste 0 -- -- 41
2019-04-11 13:00:00 12.9 7 Nordeste 15 Este 0 -- -- 39
2019-04-11 12:00:00 11.7 8 Sudeste 20 Sur 0 -- -- 45
2019-04-11 11:00:00 10.7 5 Sur 10 Sudeste 0 -- -- 53
2019-04-11 10:00:00 7.4 5 Nordeste 9 Nordeste 0 -- -- 69
2019-04-11 09:00:00 3.1 5 Norte 12 Norte 0 -- -- 82
2019-04-11 08:00:00 0 3 Noroeste 8 Noroeste 0 -- -- 94
2019-04-11 07:00:00 0.7 4 Norte 6 Norte 0 -- -- 93
2019-04-11 06:00:00 -0.5 6 Norte 11 Norte 0 -- -- 95
2019-04-11 05:00:00 -0.1 7 Norte 11 Nordeste 0 -- -- 94
2019-04-11 04:00:00 0.3 7 Norte 12 Norte 0 -- -- 89
2019-04-11 03:00:00 1.5 6 Norte 19 Oeste 0 -- -- 86
2019-04-11 02:00:00 4.4 14 Noroeste 19 Noroeste 0 -- -- 76
2019-04-11 01:00:00 2 10 Noroeste 16 Norte 0 -- -- 82
2019-04-11 00:00:00 3.6 10 Noroeste 15 Noroeste 0 -- -- 77
2019-04-10 23:00:00 4.1 8 Noroeste 16 Norte 0 -- -- 73
2019-04-10 22:00:00 5.1 12 Norte 23 Noroeste 0 -- -- 71
2019-04-10 21:00:00 7.5 14 Norte 32 Norte 0 -- -- 62
2019-04-10 20:00:00 12 18 Norte 34 Norte 0 -- -- 47
2019-04-10 19:00:00 13.8 20 Norte 36 Norte 0 -- -- 44
2019-04-10 18:00:00 14 24 Norte 40 Norte 0 -- -- 44
2019-04-10 17:00:00 12.8 21 Norte 43 Nordeste 0 -- -- 50
2019-04-10 16:00:00 13.5 22 Norte 41 Noroeste 0 -- -- 47
2019-04-10 15:00:00 13.1 23 Noroeste 41 Norte 0 -- -- 56
2019-04-10 14:00:00 11.8 22 Noroeste 36 Noroeste 0 -- -- 60
2019-04-10 13:00:00 11.1 20 Noroeste 40 Noroeste 0 -- -- 61
2019-04-10 12:00:00 10.6 22 Noroeste 38 Noroeste 0 -- -- 64
2019-04-10 11:00:00 9.8 21 Noroeste 38 Noroeste 0 -- -- 67
2019-04-10 10:00:00 7.4 13 Oeste 22 Oeste 0 -- -- 78
2019-04-10 09:00:00 4.9 9 Noroeste 23 Oeste 0.2 -- -- 86
2019-04-10 08:00:00 3.3 14 Noroeste 28 Noroeste 0 -- -- 89
2019-04-10 07:00:00 3.7 14 Oeste 31 Oeste 0.2 -- -- 82
2019-04-10 06:00:00 3.9 16 Noroeste 34 Oeste 0 -- -- 82
2019-04-10 05:00:00 3.9 17 Noroeste 32 Oeste 0 -- -- 81
2019-04-10 04:00:00 4 17 Oeste 31 Noroeste 0 -- -- 79
2019-04-10 03:00:00 4 13 Oeste 23 Oeste 0 -- -- 85
2019-04-10 02:00:00 3.7 12 Oeste 23 Oeste 0 -- -- 86
2019-04-10 01:00:00 3.5 10 Oeste 21 Noroeste 0 -- -- 87
2019-04-10 00:00:00 3.5 9 Oeste 23 Oeste 0 -- -- 89
2019-04-09 23:00:00 4.5 13 Noroeste 23 Oeste 0 -- -- 84
2019-04-09 22:00:00 4.8 9 Oeste 26 Oeste 0.2 -- -- 87
2019-04-09 21:00:00 5.6 9 Oeste 34 Noroeste 0 -- -- 75
2019-04-09 20:00:00 7.9 12 Oeste 33 Oeste 0 -- -- 70
2019-04-09 19:00:00 7.8 19 Noroeste 36 Oeste 0 -- -- 76
2019-04-09 18:00:00 11.7 15 Noroeste 43 Oeste 0 -- -- 46
2019-04-09 17:00:00 11.3 24 Oeste 45 Oeste 0 -- -- 47
2019-04-09 16:00:00 10.6 21 Oeste 38 Oeste 0 -- -- 61
2019-04-09 15:00:00 9.5 15 Oeste 29 Oeste 0 -- -- 62
2019-04-09 14:00:00 8.3 17 Oeste 32 Oeste 0 -- -- 67
2019-04-09 13:00:00 8.5 17 Oeste 28 Oeste 0 -- -- 67
2019-04-09 12:00:00 4.9 15 Oeste 33 Oeste 0 -- -- 83
2019-04-09 11:00:00 5.1 5 Noroeste 18 Noroeste 0.2 -- -- 91
2019-04-09 10:00:00 3.6 5 Noroeste 9 Noroeste 1 -- -- 96
2019-04-09 09:00:00 3.4 4 Norte 9 Norte 0.4 -- -- 96
2019-04-09 08:00:00 2.7 5 Norte 8 Norte 0 -- -- 96
2019-04-09 07:00:00 2.8 0 Calma 4 Norte 0 -- -- 95
2019-04-09 06:00:00 3 3 Norte 6 Norte 0.2 -- -- 93
2019-04-09 05:00:00 2.8 5 Norte 9 Norte 0 -- -- 89
2019-04-09 04:00:00 3.1 4 Nordeste 12 Sudoeste 0 -- -- 87
2019-04-09 03:00:00 4 6 Sur 10 Sur 0 -- -- 82
2019-04-09 02:00:00 3.1 6 Nordeste 9 Nordeste 0 -- -- 82
2019-04-09 01:00:00 4.3 2 Sur 6 Norte 0 -- -- 77
2019-04-09 00:00:00 4.2 3 Sudoeste 14 Sudoeste 0 -- -- 77
2019-04-08 23:00:00 5.2 10 Sudoeste 17 Sudoeste 0 -- -- 70
2019-04-08 22:00:00 5.9 9 Sudoeste 19 Sudoeste 0 -- -- 67
2019-04-08 21:00:00 8 13 Sudoeste 28 Oeste 0 -- -- 57
2019-04-08 20:00:00 10.5 16 Sudoeste 32 Oeste 0 -- -- 49
2019-04-08 19:00:00 10.7 13 Sudoeste 40 Sudoeste 0 -- -- 50
2019-04-08 18:00:00 11.7 14 Sudoeste 34 Oeste 0 -- -- 39
2019-04-08 17:00:00 12 17 Oeste 28 Oeste 0 -- -- 42
2019-04-08 16:00:00 13 6 Sudoeste 26 Noroeste 0 -- -- 40
2019-04-08 15:00:00 13.1 6 Sur 24 Oeste 0 -- -- 43
2019-04-08 14:00:00 12.1 10 Oeste 23 Oeste 0 -- -- 47
2019-04-08 13:00:00 9.5 10 Oeste 25 Oeste 0 -- -- 56
2019-04-08 12:00:00 9.7 12 Oeste 24 Oeste 0 -- -- 57
2019-04-08 11:00:00 9.2 9 Oeste 30 Oeste 0 -- -- 63
2019-04-08 10:00:00 8 10 Oeste 22 Oeste 0 -- -- 71
2019-04-08 09:00:00 6 9 Oeste 17 Oeste 0 -- -- 86
2019-04-08 08:00:00 3.2 6 Oeste 18 Noroeste 0 -- -- 98
2019-04-08 07:00:00 3 6 Oeste 11 Oeste 0 -- -- 99
2019-04-08 06:00:00 2.9 5 Norte 13 Norte 0 -- -- 99
2019-04-08 05:00:00 2.9 7 Nordeste 13 Norte 0 -- -- 99
2019-04-08 04:00:00 2.9 10 Norte 18 Norte 0.4 -- -- 98
2019-04-08 03:00:00 3 13 Norte 16 Norte 1 -- -- 98
2019-04-08 02:00:00 4 5 Este 15 Este 0.6 -- -- 98
2019-04-08 01:00:00 4.3 7 Nordeste 12 Nordeste 0.4 -- -- 98
2019-04-08 00:00:00 4 5 Norte 8 Norte 0.8 -- -- 98
2019-04-07 23:00:00 3.8 4 Este 19 Sur 0.8 -- -- 97
2019-04-07 22:00:00 3.8 16 Sur 23 Sur 0.2 -- -- 96
2019-04-07 21:00:00 3.9 18 Sur 24 Sur 0 -- -- 94
2019-04-07 20:00:00 4.2 16 Sur 29 Sur 0.4 -- -- 94
2019-04-07 19:00:00 4.6 14 Sur 22 Sur 0.6 -- -- 92
2019-04-07 18:00:00 5.5 8 Sudoeste 32 Sudoeste 1 -- -- 86
2019-04-07 17:00:00 6.7 28 Sur 42 Sur 0 -- -- 77
2019-04-07 16:00:00 10.2 14 Sur 30 Sur 0 -- -- 51
2019-04-07 15:00:00 11.1 14 Sur 32 Sur 0 -- -- 43
2019-04-07 14:00:00 9.8 8 Sur 23 Sudoeste 0 -- -- 47
2019-04-07 13:00:00 9.2 9 Sur 22 Oeste 0 -- -- 50
2019-04-07 12:00:00 9.6 10 Noroeste 24 Noroeste 0 -- -- 50
2019-04-07 11:00:00 6.5 15 Oeste 28 Oeste 0 -- -- 58
2019-04-07 10:00:00 4.7 10 Oeste 15 Noroeste 0 -- -- 68
2019-04-07 09:00:00 3.7 7 Norte 16 Noroeste 0 -- -- 76
2019-04-07 08:00:00 -0.3 4 Sudeste 17 Noroeste 0 -- -- 87
2019-04-07 07:00:00 0.3 6 Noroeste 13 Oeste 0 -- -- 80
2019-04-07 06:00:00 0.2 3 Oeste 17 Noroeste 0 -- -- 87
2019-04-07 05:00:00 0.8 9 Noroeste 18 Noroeste 0 -- -- 85
2019-04-07 04:00:00 1.1 12 Noroeste 25 Oeste 0 -- -- 84
2019-04-07 03:00:00 1.5 12 Noroeste 26 Oeste 0 -- -- 82
2019-04-07 02:00:00 1.6 13 Oeste 30 Oeste 0 -- -- 86
2019-04-07 01:00:00 2 13 Oeste 25 Noroeste 0 -- -- 87
2019-04-07 00:00:00 2.8 5 Oeste 15 Oeste 0 -- -- 82
2019-04-06 23:00:00 2.5 5 Norte 21 Oeste 0 -- -- 79
2019-04-06 22:00:00 3.1 9 Oeste 25 Noroeste 0 -- -- 78
2019-04-06 21:00:00 3.7 19 Oeste 41 Noroeste 0 -- -- 69
2019-04-06 20:00:00 6.4 11 Sudoeste 34 Oeste 0 -- -- 58
2019-04-06 19:00:00 5.8 16 Noroeste 40 Noroeste 0 -- -- 74
2019-04-06 18:00:00 5.7 18 Oeste 37 Oeste 0.2 -- -- 70
2019-04-06 17:00:00 5 18 Oeste 44 Oeste 0 -- -- 83
2019-04-06 16:00:00 7.3 21 Oeste 37 Oeste 0 -- -- 66
2019-04-06 15:00:00 7.4 16 Noroeste 32 Oeste 0 -- -- 67
2019-04-06 14:00:00 7.8 18 Noroeste 32 Oeste 0 -- -- 66
2019-04-06 13:00:00 5.8 18 Oeste 32 Oeste 0.2 -- -- 74
2019-04-06 12:00:00 5.3 9 Sudoeste 24 Sudoeste 0 -- -- 73
2019-04-06 11:00:00 4.6 14 Sur 19 Sur 0 -- -- 72
2019-04-06 10:00:00 3 2 Sur 7 Sudeste 0 -- -- 80
2019-04-06 09:00:00 2.6 3 Sur 10 Sur 0 -- -- 83
2019-04-06 08:00:00 0.2 6 Sudoeste 10 Sur 0 -- -- 93
2019-04-06 07:00:00 0.8 8 Sur 14 Sur 0 -- -- 90
2019-04-06 06:00:00 0.6 5 Este 8 Este 0 -- -- 87
2019-04-06 05:00:00 0.9 4 Este 9 Este 0 -- -- 86
2019-04-06 04:00:00 1.3 4 Sur 8 Sudoeste 0 -- -- 82
2019-04-06 03:00:00 1.8 5 Sudoeste 10 Oeste 0 -- -- 81
2019-04-06 02:00:00 1.2 5 Noroeste 12 Oeste 0 -- -- 83
2019-04-06 01:00:00 1 3 Sur 17 Noroeste 0 -- -- 87
2019-04-06 00:00:00 1.4 10 Noroeste 17 Noroeste 0 -- -- 87
2019-04-05 23:00:00 2.4 9 Noroeste 24 Noroeste 0 -- -- 81
2019-04-05 22:00:00 2.5 14 Noroeste 24 Oeste 0 -- -- 80
2019-04-05 21:00:00 3.8 13 Noroeste 30 Oeste 0 -- -- 71
2019-04-05 20:00:00 5.8 18 Noroeste 32 Noroeste 0 -- -- 62
2019-04-05 19:00:00 7.5 15 Noroeste 26 Noroeste 0 -- -- 52
2019-04-05 18:00:00 8.4 12 Oeste 32 Noroeste 0 -- -- 46
2019-04-05 17:00:00 9.5 12 Noroeste 26 Sudoeste 0 -- -- 40
2019-04-05 16:00:00 9.8 9 Noroeste 25 Sur 0 -- -- 37
2019-04-05 15:00:00 9.9 18 Sur 29 Sudeste 0 -- -- 40
2019-04-05 14:00:00 8.3 9 Sur 18 Sur 0 -- -- 49
2019-04-05 13:00:00 6.8 8 Sur 14 Noroeste 0 -- -- 57
2019-04-05 12:00:00 7.6 6 Noroeste 15 Norte 0 -- -- 56
2019-04-05 11:00:00 4.5 2 Sudeste 14 Sudeste 0 -- -- 77
2019-04-05 10:00:00 4.1 8 Sudeste 11 Sudeste 0 -- -- 83
2019-04-05 09:00:00 1.4 3 Sudoeste 20 Oeste 0 -- -- 90
2019-04-05 08:00:00 0.7 6 Oeste 14 Oeste 0 -- -- 96
2019-04-05 07:00:00 1.1 12 Nordeste 16 Nordeste 0.2 -- -- 96
2019-04-05 06:00:00 1.4 8 Norte 11 Norte 0 -- -- 96
2019-04-05 05:00:00 1.5 4 Norte 10 Sur 0 -- -- 95
2019-04-05 04:00:00 1.5 5 Sudoeste 29 Sur 0 -- -- 95
2019-04-05 03:00:00 1.1 21 Sur 28 Sur 0 -- -- 96
2019-04-05 02:00:00 1.1 15 Sudeste 35 Sur 0.2 -- -- 96
2019-04-05 01:00:00 1.9 23 Sur 35 Sur 0 -- -- 94
2019-04-05 00:00:00 2.3 21 Sur 40 Sur 0.2 -- -- 92
2019-04-04 23:00:00 2.3 28 Sur 36 Sur 0 -- -- 89
2019-04-04 22:00:00 2.3 19 Sur 33 Sur 0 -- -- 89
2019-04-04 21:00:00 2.9 23 Sur 34 Sur 0 -- -- 87
2019-04-04 20:00:00 3.5 19 Sur 28 Sudoeste 0.4 -- -- 87
2019-04-04 19:00:00 5.7 3 Oeste 17 Sudoeste 0 -- -- 74
2019-04-04 18:00:00 7.7 5 Noroeste 17 Noroeste 0 -- -- 53
2019-04-04 17:00:00 7.8 13 Noroeste 24 Sudoeste 0 -- -- 53
2019-04-04 16:00:00 9.5 12 Sur 23 Sudoeste 0 -- -- 41
2019-04-04 15:00:00 9.2 6 Noroeste 23 Sur 0 -- -- 37
2019-04-04 14:00:00 7.5 14 Sudoeste 24 Sudoeste 0 -- -- 43
2019-04-04 13:00:00 6.7 12 Oeste 30 Oeste 0 -- -- 50
2019-04-04 12:00:00 5.2 12 Oeste 27 Oeste 0 -- -- 57
2019-04-04 11:00:00 4.4 11 Noroeste 24 Oeste 0 -- -- 62
2019-04-04 10:00:00 4.3 10 Sudoeste 19 Sudoeste 0 -- -- 65
2019-04-04 09:00:00 1.8 9 Oeste 17 Oeste 0 -- -- 75
2019-04-04 08:00:00 -0.7 9 Noroeste 15 Oeste 0 -- -- 81
2019-04-04 07:00:00 -1.1 7 Sur 24 Oeste 0 -- -- 82
2019-04-04 06:00:00 -0.2 15 Oeste 30 Noroeste 0 -- -- 81
2019-04-04 05:00:00 -0.2 14 Oeste 22 Oeste 0 -- -- 78
2019-04-04 04:00:00 -0.7 9 Noroeste 28 Noroeste 0 -- -- 77
2019-04-04 03:00:00 0.2 12 Noroeste 24 Noroeste 0 -- -- 69
2019-04-04 02:00:00 0.3 12 Noroeste 25 Noroeste 0 -- -- 72
2019-04-04 01:00:00 0 10 Noroeste 21 Oeste 0 -- -- 77
2019-04-04 00:00:00 0.1 3 Sudoeste 16 Oeste 0 -- -- 77
2019-04-03 23:00:00 0.4 5 Oeste 19 Noroeste 0 -- -- 73
2019-04-03 22:00:00 1 9 Oeste 23 Noroeste 0 -- -- 71
2019-04-03 21:00:00 2.4 15 Noroeste 30 Noroeste 0 -- -- 64
2019-04-03 20:00:00 5.4 18 Noroeste 35 Noroeste 0 -- -- 49
2019-04-03 19:00:00 7.6 16 Noroeste 42 Noroeste 0 -- -- 48
2019-04-03 18:00:00 5.8 26 Noroeste 46 Noroeste 0 -- -- 59
2019-04-03 17:00:00 9.5 23 Noroeste 39 Oeste 0 -- -- 40
2019-04-03 16:00:00 7.7 28 Noroeste 54 Noroeste 0 -- -- 46
2019-04-03 15:00:00 9 21 Noroeste 43 Noroeste 0 -- -- 47
2019-04-03 14:00:00 9.2 20 Noroeste 43 Noroeste 0 -- -- 51
2019-04-03 13:00:00 8.6 18 Noroeste 42 Oeste 0 -- -- 49
2019-04-03 12:00:00 7.8 19 Noroeste 42 Noroeste 0 -- -- 52
2019-04-03 11:00:00 5.6 21 Noroeste 38 Oeste 0 -- -- 66
2019-04-03 10:00:00 3.8 13 Oeste 27 Oeste 0 -- -- 70
2019-04-03 09:00:00 3.1 13 Oeste 26 Oeste 0 -- -- 76
2019-04-03 08:00:00 1.6 17 Noroeste 38 Noroeste 0 -- -- 83
2019-04-03 07:00:00 2.1 12 Noroeste 28 Noroeste 0 -- -- 77
2019-04-03 06:00:00 2.9 5 Sudoeste 17 Noroeste 0 -- -- 75
2019-04-03 05:00:00 4.2 10 Oeste 24 Noroeste 0 -- -- 73
2019-04-03 04:00:00 5 9 Oeste 21 Oeste 0 -- -- 74
2019-04-03 03:00:00 5 9 Oeste 17 Oeste 0 -- -- 74
2019-04-03 02:00:00 5.8 8 Noroeste 23 Oeste 0 -- -- 68
2019-04-03 01:00:00 6.2 13 Noroeste 26 Noroeste 0 -- -- 70
2019-04-03 00:00:00 7 9 Noroeste 24 Noroeste 0 -- -- 67
2019-04-02 23:00:00 7 14 Noroeste 32 Norte 0 -- -- 65
2019-04-02 22:00:00 8 20 Noroeste 35 Noroeste 0 -- -- 60
2019-04-02 21:00:00 9.5 15 Noroeste 36 Noroeste 0 -- -- 54
2019-04-02 20:00:00 12.3 21 Noroeste 35 Noroeste 0 -- -- 41
2019-04-02 19:00:00 14.8 21 Noroeste 41 Noroeste 0 -- -- 40
2019-04-02 18:00:00 16.8 21 Noroeste 41 Norte 0 -- -- 35
2019-04-02 17:00:00 17.8 16 Noroeste 34 Noroeste 0 -- -- 27
2019-04-02 16:00:00 18 15 Noroeste 35 Noroeste 0 -- -- 25
2019-04-02 15:00:00 16.6 16 Noroeste 30 Oeste 0 -- -- 29
2019-04-02 14:00:00 15.6 10 Sur 18 Sur 0 -- -- 40
2019-04-02 13:00:00 15.4 7 Nordeste 18 Norte 0 -- -- 45
2019-04-02 12:00:00 14.4 8 Sur 16 Sur 0 -- -- 51
2019-04-02 11:00:00 14.3 3 Este 9 Nordeste 0 -- -- 54
2019-04-02 10:00:00 11.2 4 Nordeste 8 Norte 0 -- -- 60
2019-04-02 09:00:00 3.4 6 Norte 12 Norte 0 -- -- 88
2019-04-02 08:00:00 1.6 10 Norte 13 Norte 0 -- -- 89
2019-04-02 07:00:00 2 5 Noroeste 9 Norte 0 -- -- 91
2019-04-02 06:00:00 2.3 8 Noroeste 10 Noroeste 0 -- -- 90
2019-04-02 05:00:00 2.5 5 Nordeste 8 Nordeste 0 -- -- 80
2019-04-02 04:00:00 2.9 4 Noroeste 10 Norte 0 -- -- 82
2019-04-02 03:00:00 4.5 8 Norte 11 Norte 0 -- -- 77
2019-04-02 02:00:00 5.8 8 Norte 13 Sudeste 0 -- -- 73
2019-04-02 01:00:00 8.4 2 Sudoeste 5 Oeste 0 -- -- 64
2019-04-02 00:00:00 8.6 2 Oeste 13 Norte 0 -- -- 63
2019-04-01 23:00:00 8.9 10 Nordeste 19 Nordeste 0 -- -- 62
2019-04-01 22:00:00 10.8 14 Nordeste 19 Norte 0 -- -- 54
2019-04-01 21:00:00 12.6 10 Oeste 19 Sudoeste 0 -- -- 49
2019-04-01 20:00:00 15.8 13 Sudoeste 23 Sudoeste 0 -- -- 40
2019-04-01 19:00:00 15.5 3 Este 33 Nordeste 0 -- -- 41
2019-04-01 18:00:00 18.9 8 Este 22 Este 0.2 -- -- 37
2019-04-01 17:00:00 16.4 11 Nordeste 27 Nordeste 0 -- -- 39
2019-04-01 16:00:00 17.4 13 Sur 23 Sur 0 -- -- 39
2019-04-01 15:00:00 17.6 6 Este 24 Sudeste 0 -- -- 39
2019-04-01 14:00:00 16.1 9 Sur 22 Sudeste 0 -- -- 43
2019-04-01 13:00:00 14.3 8 Sudeste 17 Sur 0 -- -- 51
2019-04-01 12:00:00 12.4 8 Sur 14 Sudeste 0 -- -- 56
2019-04-01 11:00:00 11.2 5 Sudeste 9 Sudeste 0 -- -- 62
2019-04-01 10:00:00 10 0 Calma 3 Nordeste 0 -- -- 66
2019-04-01 09:00:00 4.2 0 Calma 6 Norte 0 -- -- 93
2019-04-01 08:00:00 2.1 0 Calma 6 Norte 0 -- -- 94
2019-04-01 07:00:00 2.8 5 Norte 10 Este 0 -- -- 95
2019-04-01 06:00:00 3.5 0 Calma 9 Norte 0 -- -- 88
2019-04-01 05:00:00 3.3 8 Norte 9 Norte 0 -- -- 87
2019-04-01 04:00:00 5.2 4 Norte 9 Norte 0 -- -- 81
2019-04-01 03:00:00 5.5 6 Norte 6 Norte 0 -- -- 79
2019-04-01 02:00:00 6.9 3 Sudeste 17 Este 0 -- -- 74
2019-04-01 01:00:00 8.3 8 Sudeste 17 Sudeste 0 -- -- 65
2019-04-01 00:00:00 8 6 Nordeste 16 Norte 0 -- -- 60
2019-03-31 23:00:00 8.9 13 Norte 19 Norte 0 -- -- 56
2019-03-31 22:00:00 10.7 14 Norte 27 Norte 0 -- -- 50
2019-03-31 21:00:00 12.1 19 Nordeste 31 Norte 0 -- -- 47
2019-03-31 20:00:00 15.9 23 Nordeste 31 Norte 0 -- -- 35
2019-03-31 19:00:00 15.4 8 Nordeste 21 Nordeste 0 -- -- 33
2019-03-31 18:00:00 19.5 6 Nordeste 23 Sudeste 0 -- -- 27
2019-03-31 17:00:00 17.8 9 Este 22 Sudoeste 0 -- -- 28
2019-03-31 16:00:00 18.7 11 Sur 23 Sudeste 0 -- -- 26
2019-03-31 15:00:00 16.6 10 Sudeste 27 Sur 0 -- -- 32
2019-03-31 14:00:00 16.5 14 Sudeste 25 Sur 0 -- -- 35
2019-03-31 13:00:00 16.1 9 Este 18 Este 0 -- -- 35
2019-03-31 12:00:00 15.1 8 Este 16 Este 0 -- -- 38
2019-03-31 11:00:00 14 6 Nordeste 12 Nordeste 0 -- -- 38
2019-03-31 10:00:00 12 4 Norte 9 Norte 0 -- -- 49
2019-03-31 09:00:00 5.8 5 Norte 13 Noroeste 0 -- -- 67
2019-03-31 08:00:00 4.5 9 Norte 12 Norte 0 -- -- 69
2019-03-31 07:00:00 4.7 10 Norte 13 Noroeste 0 -- -- 70
2019-03-31 06:00:00 5.1 10 Norte 13 Norte 0 -- -- 70
2019-03-31 05:00:00 5.7 8 Norte 11 Norte 0 -- -- 70
2019-03-31 03:00:00 7 13 Norte 17 Norte 0 -- -- 67
2019-03-31 01:00:00 7.7 12 Norte 15 Nordeste 0 -- -- 65
2019-03-31 00:00:00 8.3 5 Norte 13 Norte 0 -- -- 67
2019-03-30 23:00:00 9.4 12 Norte 15 Norte 0 -- -- 61
2019-03-30 22:00:00 9.8 11 Norte 15 Norte 0 -- -- 62
2019-03-30 21:00:00 10.2 10 Norte 19 Oeste 0 -- -- 60
2019-03-30 20:00:00 11.4 11 Noroeste 20 Noroeste 0 -- -- 52
2019-03-30 19:00:00 13.2 7 Noroeste 30 Noroeste 0.6 -- -- 47
2019-03-30 18:00:00 16.9 17 Norte 25 Norte 0 -- -- 38
2019-03-30 17:00:00 16.4 9 Norte 27 Norte 0 -- -- 39
2019-03-30 16:00:00 16.6 15 Norte 25 Norte 0 -- -- 39
2019-03-30 15:00:00 19.2 9 Sur 21 Sur 0 -- -- 32
2019-03-30 14:00:00 17.9 5 Sudeste 21 Sudeste 0 -- -- 35
2019-03-30 13:00:00 17 8 Sudeste 20 Sudeste 0 -- -- 37
2019-03-30 12:00:00 16.1 7 Nordeste 21 Este 0 -- -- 37
2019-03-30 11:00:00 12.4 8 Este 17 Nordeste 0 -- -- 43
2019-03-30 10:00:00 11.7 8 Norte 15 Norte 0 -- -- 45
2019-03-30 09:00:00 8.2 6 Norte 9 Norte 0 -- -- 52
2019-03-30 08:00:00 6.2 5 Noroeste 9 Nordeste 0 -- -- 59
2019-03-30 07:00:00 5.8 5 Norte 17 Nordeste 0 -- -- 60
2019-03-30 06:00:00 5.5 9 Norte 17 Nordeste 0 -- -- 68
2019-03-30 05:00:00 5.8 0 Calma 13 Noroeste 0 -- -- 67
2019-03-30 04:00:00 6.5 10 Noroeste 12 Noroeste 0 -- -- 62
2019-03-30 03:00:00 5.2 4 Nordeste 12 Norte 0 -- -- 65
2019-03-30 02:00:00 6 4 Nordeste 13 Norte 0 -- -- 59
2019-03-30 01:00:00 7.4 9 Norte 13 Noroeste 0 -- -- 56
2019-03-30 00:00:00 7.4 13 Norte 14 Norte 0 -- -- 56
2019-03-29 23:00:00 7.8 6 Norte 8 Norte 0 -- -- 53
2019-03-29 22:00:00 9.9 9 Sur 18 Sur 0 -- -- 46
2019-03-29 21:00:00 11.8 16 Sudeste 32 Sudeste 0 -- -- 41
2019-03-29 20:00:00 13.8 22 Sur 35 Sudeste 0 -- -- 37
2019-03-29 19:00:00 15.8 19 Sudeste 30 Sur 0 -- -- 34
2019-03-29 18:00:00 17.8 16 Sudeste 24 Sur 0 -- -- 31
2019-03-29 17:00:00 18.5 11 Sudeste 27 Sur 0 -- -- 28
2019-03-29 16:00:00 20 9 Este 23 Sudeste 0 -- -- 29
2019-03-29 15:00:00 18.7 6 Sudoeste 27 Sur 0 -- -- 32
2019-03-29 14:00:00 17 9 Sudoeste 23 Sur 0 -- -- 35
2019-03-29 13:00:00 15.2 11 Sur 21 Sur 0 -- -- 36
2019-03-29 12:00:00 14.9 5 Sudeste 19 Sudeste 0 -- -- 38
2019-03-29 11:00:00 14.3 5 Norte 13 Nordeste 0 -- -- 37
2019-03-29 10:00:00 13.3 3 Nordeste 9 Sudeste 0 -- -- 38
2019-03-29 09:00:00 11.1 2 Noroeste 9 Oeste 0 -- -- 43
2019-03-29 08:00:00 1.5 5 Norte 12 Oeste 0 -- -- 69
2019-03-29 07:00:00 1.8 4 Oeste 11 Oeste 0 -- -- 66
2019-03-29 06:00:00 2.8 6 Oeste 10 Oeste 0 -- -- 63
2019-03-29 05:00:00 2.6 0 Calma 8 Norte 0 -- -- 64
2019-03-29 04:00:00 2.6 7 Norte 10 Oeste 0 -- -- 63
2019-03-29 03:00:00 4.1 5 Noroeste 9 Noroeste 0 -- -- 59
2019-03-29 02:00:00 2 7 Norte 12 Norte 0 -- -- 69
2019-03-29 01:00:00 7.5 8 Sudoeste 21 Oeste 0 -- -- 50
2019-03-29 00:00:00 8.9 13 Oeste 18 Oeste 0 -- -- 48
2019-03-28 23:00:00 9.1 7 Sudoeste 10 Sur 0 -- -- 49
2019-03-28 22:00:00 10.4 5 Sur 18 Sudeste 0 -- -- 45
2019-03-28 21:00:00 12.2 12 Sudeste 21 Sudeste 0 -- -- 38
2019-03-28 20:00:00 13.7 9 Sudeste 18 Sudeste 0 -- -- 33
2019-03-28 19:00:00 17.7 10 Sudeste 24 Sudeste 0 -- -- 26
2019-03-28 18:00:00 18.8 14 Sudeste 27 Sudeste 0 -- -- 23
2019-03-28 17:00:00 20 13 Sudeste 28 Sudeste 0 -- -- 20
2019-03-28 16:00:00 20.4 10 Este 27 Este 0 -- -- 18
2019-03-28 15:00:00 18.6 19 Sudeste 31 Sudeste 0 -- -- 18
2019-03-28 14:00:00 17.9 14 Sudeste 33 Sudeste 0 -- -- 22
2019-03-28 13:00:00 17.2 15 Sudeste 27 Sudeste 0 -- -- 20
2019-03-28 12:00:00 16.1 10 Sudeste 19 Este 0 -- -- 26
2019-03-28 11:00:00 14.9 3 Sur 11 Sudoeste 0 -- -- 27
2019-03-28 10:00:00 10.5 7 Sur 12 Sudoeste 0 -- -- 34
2019-03-28 09:00:00 6.6 5 Nordeste 8 Norte 0 -- -- 44
2019-03-28 08:00:00 -0.2 4 Norte 6 Norte 0 -- -- 67
2019-03-28 07:00:00 -1.2 3 Noroeste 5 Norte 0 -- -- 67
2019-03-28 06:00:00 0.9 0 Calma 8 Norte 0 -- -- 58
2019-03-28 05:00:00 1.1 0 Calma 4 Sudeste 0 -- -- 58
2019-03-28 04:00:00 2.7 3 Norte 8 Norte 0 -- -- 52
2019-03-28 03:00:00 3.1 3 Norte 6 Norte 0 -- -- 50
2019-03-28 02:00:00 2.9 4 Nordeste 6 Nordeste 0 -- -- 52
2019-03-28 01:00:00 3 3 Sudeste 10 Oeste 0 -- -- 51
2019-03-28 00:00:00 6.3 7 Oeste 10 Sur 0 -- -- 41
2019-03-27 23:00:00 8.9 5 Norte 8 Oeste 0 -- -- 35
2019-03-27 22:00:00 9.9 3 Sudoeste 7 Sudeste 0 -- -- 31
2019-03-27 21:00:00 12 7 Este 12 Sudeste 0 -- -- 28
2019-03-27 20:00:00 13.9 4 Sudoeste 18 Sudeste 0 -- -- 25
2019-03-27 19:00:00 17.7 10 Sudeste 24 Sur 0 -- -- 20
2019-03-27 18:00:00 19.3 14 Sudeste 27 Sudeste 0 -- -- 17
2019-03-27 17:00:00 20.8 11 Sudeste 26 Sudeste 0 -- -- 14
2019-03-27 16:00:00 20.4 14 Sudeste 27 Sudeste 0 -- -- 16
2019-03-27 15:00:00 20 10 Este 25 Sudeste 0 -- -- 15
2019-03-27 14:00:00 19.2 12 Este 24 Este 0 -- -- 14
2019-03-27 13:00:00 17.4 13 Sur 26 Sudeste 0 -- -- 15
2019-03-27 12:00:00 17.1 10 Sudeste 35 Sudeste 0 -- -- 14
2019-03-27 11:00:00 15.5 8 Sudeste 21 Sudeste 0 -- -- 14
2019-03-27 10:00:00 13.6 3 Sur 9 Sudeste 0 -- -- 13
2019-03-27 09:00:00 9.9 2 Sudoeste 10 Norte 0 -- -- 27
2019-03-27 08:00:00 0.1 5 Norte 12 Norte 0 -- -- 34
2019-03-27 07:00:00 -1.5 8 Norte 18 Nordeste 0 -- -- 38
2019-03-27 06:00:00 -0.9 6 Nordeste 13 Nordeste 0 -- -- 37
2019-03-27 05:00:00 1.3 7 Sudoeste 13 Oeste 0 -- -- 30
2019-03-27 04:00:00 5.8 12 Oeste 17 Sudoeste 0 -- -- 17
2019-03-27 03:00:00 5.4 13 Oeste 19 Oeste 0 -- -- 17
2019-03-27 02:00:00 6.2 13 Oeste 15 Oeste 0 -- -- 18
2019-03-27 01:00:00 6.4 3 Sur 13 Este 0 -- -- 21
2019-03-27 00:00:00 6.8 2 Sudoeste 14 Este 0 -- -- 22
2019-03-26 23:00:00 5.7 3 Oeste 12 Norte 0 -- -- 26
2019-03-26 22:00:00 7 8 Nordeste 26 Este 0 -- -- 23
2019-03-26 21:00:00 9.6 18 Este 42 Este 0 -- -- 17
2019-03-26 20:00:00 11.6 18 Este 46 Este 0 -- -- 14
2019-03-26 19:00:00 14.6 16 Este 43 Este 0 -- -- 16
2019-03-26 18:00:00 16.9 18 Este 40 Este 0 -- -- 14
2019-03-26 17:00:00 17.9 22 Este 40 Este 0 -- -- 14
2019-03-26 16:00:00 18.7 20 Este 39 Nordeste 0 -- -- 13
2019-03-26 15:00:00 18.6 18 Este 41 Este 0 -- -- 14
2019-03-26 14:00:00 17.4 22 Este 40 Este 0 -- -- 13
2019-03-26 13:00:00 16.7 13 Este 31 Este 0 -- -- 14
2019-03-26 12:00:00 13.5 10 Este 25 Este 0 -- -- 30
2019-03-26 11:00:00 10.1 8 Sudeste 15 Sur 0 -- -- 41
2019-03-26 10:00:00 7.7 8 Sur 14 Sur 0 -- -- 55
2019-03-26 09:00:00 5.4 4 Sudoeste 11 Oeste 0 -- -- 62
2019-03-26 08:00:00 1.4 9 Oeste 14 Sudoeste 0 -- -- 73
2019-03-26 07:00:00 1.4 10 Oeste 18 Oeste 0 -- -- 72
2019-03-26 06:00:00 1.1 9 Oeste 14 Oeste 0 -- -- 74
2019-03-26 05:00:00 1.1 10 Oeste 13 Oeste 0 -- -- 75
2019-03-26 04:00:00 1.1 5 Sudoeste 16 Sur 0 -- -- 73
2019-03-26 03:00:00 0.5 5 Sudeste 9 Este 0 -- -- 76
2019-03-26 02:00:00 2.4 4 Sur 6 Sudoeste 0 -- -- 69
2019-03-26 01:00:00 4.1 0 Calma 6 Noroeste 0 -- -- 64
2019-03-26 00:00:00 4.3 8 Norte 12 Norte 0 -- -- 66
2019-03-25 23:00:00 5.2 9 Norte 12 Nordeste 0 -- -- 66
2019-03-25 22:00:00 6.4 9 Norte 14 Nordeste 0 -- -- 64
2019-03-25 21:00:00 8.7 5 Este 18 Este 0 -- -- 43
2019-03-25 20:00:00 11.1 10 Sudeste 31 Sudeste 0 -- -- 34
2019-03-25 19:00:00 14.9 17 Sudeste 35 Sur 0 -- -- 34
2019-03-25 18:00:00 16.7 19 Sudeste 29 Sudeste 0 -- -- 35
2019-03-25 17:00:00 17.6 18 Sur 26 Sudeste 0 -- -- 33
2019-03-25 16:00:00 18 11 Sudeste 24 Sudeste 0 -- -- 31
2019-03-25 15:00:00 17.2 12 Sudeste 28 Sudeste 0 -- -- 32
2019-03-25 14:00:00 16.6 10 Sudeste 24 Este 0 -- -- 33
2019-03-25 13:00:00 15 8 Sur 22 Sudeste 0 -- -- 41
2019-03-25 12:00:00 13.3 14 Sudeste 23 Sur 0 -- -- 48
2019-03-25 11:00:00 12.9 9 Sur 22 Sudeste 0 -- -- 49
2019-03-25 10:00:00 11.7 11 Sur 18 Sur 0 -- -- 49
2019-03-25 09:00:00 9.6 5 Sudoeste 12 Oeste 0 -- -- 59
2019-03-25 08:00:00 4.3 5 Oeste 14 Oeste 0 -- -- 70
2019-03-25 07:00:00 2.6 4 Noroeste 9 Oeste 0 -- -- 79
2019-03-25 06:00:00 3.9 5 Oeste 8 Oeste 0 -- -- 76
2019-03-25 05:00:00 4 3 Sur 9 Norte 0 -- -- 76
2019-03-25 04:00:00 4.2 3 Nordeste 13 Sudoeste 0 -- -- 75
2019-03-25 03:00:00 4.3 4 Oeste 9 Oeste 0 -- -- 74
2019-03-25 02:00:00 7.4 4 Oeste 10 Oeste 0 -- -- 66
2019-03-25 01:00:00 7.8 0 Calma 8 Sudoeste 0 -- -- 66
2019-03-25 00:00:00 9.6 7 Oeste 12 Oeste 0 -- -- 59
2019-03-24 23:00:00 10.1 0 Calma 17 Nordeste 0 -- -- 58
2019-03-24 22:00:00 11.3 13 Nordeste 22 Norte 0 -- -- 56
2019-03-24 21:00:00 11.8 15 Norte 21 Norte 0 -- -- 54
2019-03-24 20:00:00 14.6 12 Norte 20 Nordeste 0 -- -- 44
2019-03-24 19:00:00 19 9 Sudeste 19 Este 0 -- -- 26
2019-03-24 18:00:00 20.6 9 Sudeste 19 Sudeste 0 -- -- 25
2019-03-24 17:00:00 21.2 10 Este 24 Sur 0 -- -- 24
2019-03-24 16:00:00 20.5 14 Sudeste 26 Sudeste 0 -- -- 26
2019-03-24 15:00:00 20.2 12 Sudeste 24 Sudeste 0 -- -- 28
2019-03-24 14:00:00 20 11 Este 26 Este 0 -- -- 28
2019-03-24 13:00:00 19.6 9 Este 21 Sudeste 0 -- -- 29
2019-03-24 12:00:00 18.7 7 Sudeste 17 Este 0 -- -- 34
2019-03-24 11:00:00 17.2 8 Nordeste 17 Nordeste 0 -- -- 39
2019-03-24 10:00:00 16.4 3 Nordeste 10 Este 0 -- -- 39
2019-03-24 09:00:00 12.2 2 Norte 8 Norte 0 -- -- 53
2019-03-24 08:00:00 5.5 3 Norte 9 Norte 0 -- -- 68
2019-03-24 07:00:00 6 7 Noroeste 10 Noroeste 0 -- -- 65
2019-03-24 06:00:00 6.9 8 Norte 12 Norte 0 -- -- 61
2019-03-24 05:00:00 7.8 6 Norte 8 Noroeste 0 -- -- 57
2019-03-24 04:00:00 7.1 6 Norte 8 Norte 0 -- -- 59
2019-03-24 03:00:00 5.9 3 Norte 13 Norte 0 -- -- 60
2019-03-24 02:00:00 7.1 5 Norte 11 Norte 0 -- -- 57
2019-03-24 01:00:00 6.5 5 Norte 13 Norte 0 -- -- 57
2019-03-24 00:00:00 8.2 11 Norte 15 Norte 0 -- -- 52
2019-03-23 23:00:00 9 9 Norte 12 Norte 0 -- -- 49
2019-03-23 22:00:00 9.4 9 Norte 10 Norte 0 -- -- 50
2019-03-23 21:00:00 12.4 3 Sudeste 10 Este 0 -- -- 41
2019-03-23 20:00:00 14.4 5 Este 11 Sudeste 0 -- -- 34
2019-03-23 19:00:00 17.6 8 Sur 16 Sur 0 -- -- 30
2019-03-23 18:00:00 18.7 9 Sur 19 Sudeste 0 -- -- 28
2019-03-23 17:00:00 19.3 9 Sur 24 Sur 0 -- -- 28
2019-03-23 16:00:00 20.2 6 Nordeste 23 Sudeste 0 -- -- 27
2019-03-23 15:00:00 18.6 11 Sur 53 Sudeste 0 -- -- 30
2019-03-23 14:00:00 18.2 9 Sudeste 23 Sur 0 -- -- 31
2019-03-23 13:00:00 17.2 8 Sudeste 19 Sudeste 0 -- -- 37
2019-03-23 12:00:00 15.7 8 Sudeste 16 Sudeste 0 -- -- 40
2019-03-23 11:00:00 14.5 6 Nordeste 14 Nordeste 0 -- -- 41
2019-03-23 10:00:00 13.4 5 Norte 8 Norte 0 -- -- 41
2019-03-23 09:00:00 10.5 2 Nordeste 6 Norte 0 -- -- 49
2019-03-23 08:00:00 2.7 5 Noroeste 9 Norte 0 -- -- 71
2019-03-23 07:00:00 0.7 5 Norte 7 Norte 0 -- -- 73
2019-03-23 06:00:00 2.9 6 Noroeste 9 Noroeste 0 -- -- 67
2019-03-23 05:00:00 3.2 0 Calma 3 Sudoeste 0 -- -- 63
2019-03-23 04:00:00 3 2 Sur 10 Norte 0 -- -- 65
2019-03-23 03:00:00 3.9 8 Norte 10 Norte 0 -- -- 61
2019-03-23 02:00:00 5.4 6 Norte 10 Norte 0 -- -- 56
2019-03-23 01:00:00 4.2 9 Norte 10 Norte 0 -- -- 62
2019-03-23 00:00:00 3.8 9 Norte 10 Norte 0 -- -- 64
2019-03-22 23:00:00 5.5 6 Noroeste 7 Noroeste 0 -- -- 58
2019-03-22 22:00:00 8.5 0 Calma 9 Sudoeste 0 -- -- 47
2019-03-22 21:00:00 10.1 4 Sudoeste 12 Sudeste 0 -- -- 43
2019-03-22 20:00:00 11.9 10 Sudeste 15 Sudeste 0 -- -- 38
2019-03-22 19:00:00 15.2 10 Sudeste 15 Sudeste 0 -- -- 33
2019-03-22 18:00:00 16.9 10 Sur 23 Sudeste 0 -- -- 31
2019-03-22 17:00:00 17.5 8 Sur 18 Sudeste 0 -- -- 30
2019-03-22 16:00:00 17.6 10 Sudeste 21 Sudeste 0 -- -- 31
2019-03-22 15:00:00 16.5 9 Sudeste 21 Sur 0 -- -- 33
2019-03-22 14:00:00 15.6 7 Sudoeste 18 Sudoeste 0 -- -- 36
2019-03-22 13:00:00 14.9 4 Sur 19 Sur 0 -- -- 37
2019-03-22 12:00:00 12.7 7 Sur 15 Sur 0 -- -- 42
2019-03-22 11:00:00 11.9 5 Sudeste 11 Sudeste 0 -- -- 48
2019-03-22 10:00:00 9.4 4 Sur 6 Sur 0 -- -- 59
2019-03-22 09:00:00 6.6 0 Calma 8 Norte 0 -- -- 65
2019-03-22 08:00:00 -0.9 0 Calma 8 Norte 0 -- -- 92
2019-03-22 07:00:00 -1.4 3 Noroeste 5 Noroeste 0 -- -- 93
2019-03-22 06:00:00 -0.8 0 Calma 6 Norte 0 -- -- 91
2019-03-22 05:00:00 0.1 4 Norte 10 Norte 0 -- -- 90
2019-03-22 04:00:00 -1.7 7 Norte -- -- 0 -- -- 87
2019-03-22 03:00:00 0.8 0 Calma 8 Oeste 0 -- -- 81
2019-03-22 02:00:00 2.2 0 Calma 4 Norte 0 -- -- 72
2019-03-22 01:00:00 3.7 4 Norte 8 Norte 0 -- -- 64
2019-03-22 00:00:00 4.4 7 Norte 10 Norte 0 -- -- 59
2019-03-21 23:00:00 5.4 6 Norte 7 Norte 0 -- -- 56
2019-03-21 22:00:00 7 4 Sur 8 Sur 0 -- -- 51
2019-03-21 21:00:00 8.6 6 Sur 12 Sur 0 -- -- 45
2019-03-21 20:00:00 9.9 8 Sur 15 Sur 0 -- -- 42
2019-03-21 19:00:00 14.1 9 Sur 17 Sur 0 -- -- 31
2019-03-21 18:00:00 15.2 10 Sur 20 Sur 0 -- -- 28
2019-03-21 17:00:00 15.3 12 Sur 20 Sudoeste 0 -- -- 28
2019-03-21 16:00:00 14.8 13 Sur 23 Sudeste 0 -- -- 28
2019-03-21 15:00:00 14.1 12 Sur 25 Sur 0 -- -- 30
2019-03-21 14:00:00 13.1 12 Sur 21 Sudeste 0 -- -- 28
2019-03-21 13:00:00 12.7 8 Este 18 Sur 0 -- -- 28
2019-03-21 12:00:00 10.9 9 Sudeste 23 Sur 0 -- -- 35
2019-03-21 11:00:00 9.2 7 Sur 14 Sur 0 -- -- 39
2019-03-21 10:00:00 7.7 8 Sudoeste 13 Sur 0 -- -- 43
2019-03-21 09:00:00 6 5 Oeste 9 Oeste 0 -- -- 49
2019-03-21 08:00:00 0.3 4 Oeste 12 Oeste 0 -- -- 60
2019-03-21 07:00:00 0.3 6 Oeste 10 Oeste 0 -- -- 58
2019-03-21 06:00:00 1.9 4 Oeste 8 Oeste 0 -- -- 52
2019-03-21 05:00:00 1.7 3 Oeste 10 Noroeste 0 -- -- 53
2019-03-21 04:00:00 3 6 Norte 15 Oeste 0 -- -- 44
2019-03-21 03:00:00 2.5 12 Oeste 15 Oeste 0 -- -- 44
2019-03-21 02:00:00 2.7 12 Oeste 15 Sudoeste 0 -- -- 50
2019-03-21 01:00:00 2.9 5 Oeste 10 Sudoeste 0 -- -- 61
2019-03-21 00:00:00 4.2 9 Sudoeste 12 Sudoeste 0 -- -- 57